Blue Diamond, NV (89004)

6:11 AM PDT on July 24, 2016 (GMT -0700)
Red Rock Country Club | | Change Station

Elev 3087 ft 36.15 °N, 115.34 °W | Updated 4 minutes ago

Clear
Clear
83.3 °F
Feels Like 81 °F
N
0.0
Wind Variable Wind from NNW
Gusts 0.0 mph

Today
High -- | Low -- °F
--% Chance of Precip.
Yesterday
High -- | Low -- °F
Precip. -- in
Pressure 29.70 in
Visibility 10.0 miles
Clouds Clear
Heat Index 81 °F
Dew Point 40 °F
Humidity 22%
Rainfall 0.00 in
Snow Depth Not available.
5:43 AM 7:52 PM
Waning Gibbous, 76% visible
METAR KLAS 241256Z 28004KT 10SM CLR 31/05 A2980 RMK AO2 SLP055 T03110050
Pressure 29.70 in
Visibility 10.0 miles
Clouds Clear
Heat Index 81 °F
Dew Point 40 °F
Humidity 22%
Rainfall 0.00 in
Snow Depth Not available.
5:43 AM 7:52 PM
Waning Gibbous, 76% visible
METAR KLAS 241256Z 28004KT 10SM CLR 31/05 A2980 RMK AO2 SLP055 T03110050

10-Day Weather Forecast

Almanac

Astronomy

Jul. 24, 2016 Rise Set
Actual Time
Civil Twilight
Nautical Twilight
Astronomical Twilight
Moon
Length of Visible Light
Length of Day
Tomorrow will be .
, % of the Moon is Illuminated

Today's Extremes

State Highs State Lows

Community

WunderPhotos

Upload Photos

1,927,055 photos uploaded!

WunderBlog® & News

Nearby

Air Quality

  Air Quality AQ Index Pollutant
Not available.

Snow Depth

Station Depth Elevation

Earthquake Activity

City Distance Mag. Time & Date
Minimum magnitude displayed is 2.5.

Coastal Water Temperatures

Place Temperature

Stations

Nearby Weather Stations

Station Location Temp. Windchill Dew Point Humidity Wind Precip. Elev Updated Type
                   

Watches & Warnings

There are currently no watches in effect.